Time;durP1;ratioP1;P1;durP2;ratioP2;P2;SDS_P1;SDS_P2;PMS_P1;PMS_P2;Temp;Humidity;BMP_temperature;BMP_pressure;BME280_temperature;BME280_humidity;BME280_pressure;Samples;Min_cycle;Max_cycle;Signal;HPM_P1;HPM_P2
2023/07/21 00:01:53;;;;;;;21.43;19.20;;;16.10;99.90;;;;;;5054909;28;20640;-80
2023/07/21 00:04:20;;;;;;;21.53;19.27;;;16.20;99.90;;;;;;5054927;28;20188;-81
2023/07/21 00:06:46;;;;;;;20.87;18.87;;;16.20;99.90;;;;;;5055290;28;20169;-81
2023/07/21 00:09:12;;;;;;;20.77;18.70;;;16.20;99.90;;;;;;5054781;28;20172;-79
2023/07/21 00:11:38;;;;;;;21.73;19.63;;;16.20;99.90;;;;;;5055458;28;20180;-82
2023/07/21 00:14:10;;;;;;;21.80;19.77;;;16.20;99.90;;;;;;5055190;28;20205;-81
2023/07/21 00:16:35;;;;;;;23.10;20.80;;;16.20;99.90;;;;;;5055009;28;20165;-81
2023/07/21 00:19:01;;;;;;;22.57;20.33;;;16.00;99.90;;;;;;5054374;28;20653;-81
2023/07/21 00:21:28;;;;;;;24.77;22.37;;;16.00;99.90;;;;;;5054925;28;20677;-80
2023/07/21 00:23:53;;;;;;;27.57;23.93;;;16.00;99.90;;;;;;5054771;28;20200;-81
2023/07/21 00:26:19;;;;;;;27.80;24.93;;;15.90;99.90;;;;;;5054681;28;20656;-81
2023/07/21 00:28:45;;;;;;;21.17;18.90;;;15.90;99.90;;;;;;5054988;28;20177;-81
2023/07/21 00:31:10;;;;;;;19.93;17.83;;;15.90;99.90;;;;;;5053330;28;20217;-81
2023/07/21 00:33:37;;;;;;;19.50;17.50;;;15.80;99.90;;;;;;5053994;28;20248;-81
2023/07/21 00:36:04;;;;;;;21.07;19.07;;;15.90;99.90;;;;;;5054573;28;20169;-81
2023/07/21 00:38:30;;;;;;;21.13;19.07;;;15.90;99.90;;;;;;5054895;28;20162;-80
2023/07/21 00:40:56;;;;;;;22.90;20.63;;;16.00;99.90;;;;;;5054737;28;20217;-81
2023/07/21 00:43:21;;;;;;;22.00;20.00;;;16.00;99.90;;;;;;5054524;28;20573;-81
2023/07/21 00:45:48;;;;;;;22.07;19.77;;;16.10;99.90;;;;;;5054422;28;20291;-81
2023/07/21 00:48:17;;;;;;;24.20;20.60;;;16.00;99.90;;;;;;5054041;28;20191;-81
2023/07/21 00:50:46;;;;;;;23.37;20.27;;;16.00;99.90;;;;;;5052967;28;20169;-81
2023/07/21 00:53:12;;;;;;;24.63;21.47;;;16.00;99.90;;;;;;5054224;28;20209;-81
2023/07/21 00:55:41;;;;;;;23.97;21.33;;;15.90;99.90;;;;;;5054245;28;20169;-82
2023/07/21 00:58:10;;;;;;;25.73;21.40;;;15.80;99.90;;;;;;5053874;28;20170;-81
2023/07/21 01:00:40;;;;;;;24.43;21.83;;;15.80;99.90;;;;;;5054189;28;20249;-82
2023/07/21 01:03:09;;;;;;;24.20;21.50;;;15.70;99.90;;;;;;5053502;28;20193;-81
2023/07/21 01:05:38;;;;;;;25.80;21.67;;;15.70;99.90;;;;;;5053658;28;20276;-83
2023/07/21 01:08:04;;;;;;;24.90;22.20;;;15.70;99.90;;;;;;5053954;28;20189;-81
2023/07/21 01:10:36;;;;;;;23.60;21.10;;;15.60;99.90;;;;;;5053735;28;20226;-82
2023/07/21 01:13:02;;;;;;;27.20;22.20;;;15.60;99.90;;;;;;5053821;28;20316;-82
2023/07/21 01:15:29;;;;;;;24.27;21.37;;;15.50;99.90;;;;;;5053629;28;20169;-81
2023/07/21 01:17:56;;;;;;;24.47;22.07;;;15.40;99.90;;;;;;5054210;28;20174;-81
2023/07/21 01:20:24;;;;;;;24.77;22.27;;;15.40;99.90;;;;;;5055400;28;20240;-82
2023/07/21 01:23:00;;;;;;;24.97;21.63;;;15.30;99.90;;;;;;5055273;28;20173;-83
2023/07/21 01:25:28;;;;;;;25.63;22.93;;;15.20;99.90;;;;;;5053958;28;20184;-82
2023/07/21 01:27:55;;;;;;;24.37;21.73;;;15.30;99.90;;;;;;5054091;28;20697;-83
2023/07/21 01:30:22;;;;;;;25.47;22.83;;;15.30;99.90;;;;;;5053609;28;20665;-83
2023/07/21 01:32:50;;;;;;;26.03;23.23;;;15.20;99.90;;;;;;5053347;28;20240;-83
2023/07/21 01:35:17;;;;;;;24.50;22.07;;;15.20;99.90;;;;;;5053926;28;20165;-83
2023/07/21 01:37:45;;;;;;;25.17;22.47;;;15.20;99.90;;;;;;5053674;28;20176;-83
2023/07/21 01:40:13;;;;;;;25.30;22.00;;;15.20;99.90;;;;;;5053247;28;20213;-81
2023/07/21 01:42:41;;;;;;;24.90;22.40;;;15.20;99.90;;;;;;5053712;28;20662;-82
2023/07/21 01:45:07;;;;;;;24.40;21.90;;;15.30;99.90;;;;;;5053873;28;20173;-82
2023/07/21 01:47:33;;;;;;;25.60;22.80;;;15.30;99.90;;;;;;5053571;28;20680;-81
2023/07/21 01:50:01;;;;;;;27.20;24.10;;;15.40;99.90;;;;;;5053618;28;20251;-80
2023/07/21 01:52:30;;;;;;;27.87;24.67;;;15.40;99.90;;;;;;5053324;28;20260;-82
2023/07/21 01:55:14;;;;;;;25.50;22.67;;;15.30;99.90;;;;;;5053800;28;20181;-82
2023/07/21 01:57:45;;;;;;;25.07;22.50;;;15.20;99.90;;;;;;5053418;28;20169;-81
2023/07/21 02:00:13;;;;;;;26.73;23.60;;;15.20;99.90;;;;;;5053451;28;20162;-81
2023/07/21 02:02:40;;;;;;;26.80;23.60;;;15.30;99.90;;;;;;5053444;28;20586;-82
2023/07/21 02:05:16;;;;;;;27.03;24.10;;;15.30;99.90;;;;;;5054058;28;20193;-82
2023/07/21 02:07:44;;;;;;;26.90;23.93;;;15.30;99.90;;;;;;5053724;28;20648;-82
2023/07/21 02:10:10;;;;;;;27.07;23.93;;;15.30;99.90;;;;;;5053569;28;20166;-81
2023/07/21 02:12:35;;;;;;;29.67;24.73;;;15.40;99.90;;;;;;5053500;28;20205;-81
2023/07/21 02:15:01;;;;;;;25.87;22.53;;;15.40;99.90;;;;;;5053199;28;20181;-81
2023/07/21 02:17:27;;;;;;;26.93;24.13;;;15.30;99.90;;;;;;5053488;28;20714;-80
2023/07/21 02:19:52;;;;;;;26.60;23.87;;;15.30;99.90;;;;;;5056991;28;20201;-81
2023/07/21 02:22:18;;;;;;;29.57;24.20;;;15.30;99.90;;;;;;5057339;28;20174;-80
2023/07/21 02:24:43;;;;;;;28.23;25.33;;;15.40;99.90;;;;;;5057158;28;20173;-83
2023/07/21 02:27:09;;;;;;;27.30;24.43;;;15.40;99.90;;;;;;5056881;28;20656;-81
2023/07/21 02:29:35;;;;;;;26.33;23.63;;;15.40;99.90;;;;;;5056449;28;20177;-82
2023/07/21 02:32:00;;;;;;;26.63;23.70;;;15.40;99.90;;;;;;5056772;28;20660;-81
2023/07/21 02:34:26;;;;;;;26.73;23.33;;;15.40;99.90;;;;;;5056740;28;20270;-82
2023/07/21 02:36:53;;;;;;;25.67;23.07;;;15.30;99.90;;;;;;5056892;28;20168;-82
2023/07/21 02:39:18;;;;;;;24.50;22.07;;;15.30;99.90;;;;;;5056926;28;20178;-81
2023/07/21 02:41:45;;;;;;;25.57;22.87;;;15.30;99.90;;;;;;5056519;28;20746;-81
2023/07/21 02:44:10;;;;;;;24.47;21.77;;;15.30;99.90;;;;;;5055021;28;20671;-80
2023/07/21 02:46:36;;;;;;;25.27;22.70;;;15.30;99.90;;;;;;5056477;28;20201;-81
2023/07/21 02:49:02;;;;;;;26.83;23.97;;;15.30;99.90;;;;;;5056682;28;20212;-83
2023/07/21 02:51:27;;;;;;;25.70;22.87;;;15.30;99.90;;;;;;5056552;28;20196;-81
2023/07/21 02:53:53;;;;;;;26.33;23.40;;;15.30;99.90;;;;;;5056430;28;20684;-81
2023/07/21 02:56:19;;;;;;;27.87;25.00;;;15.40;99.90;;;;;;5056026;28;20231;-81
2023/07/21 02:58:45;;;;;;;25.47;22.87;;;15.40;99.90;;;;;;5055978;28;20204;-81
2023/07/21 03:01:12;;;;;;;26.07;23.30;;;15.30;99.90;;;;;;5056552;28;20189;-82
2023/07/21 03:03:39;;;;;;;26.60;23.77;;;15.30;99.90;;;;;;5054913;28;20173;-80
2023/07/21 03:06:06;;;;;;;25.93;22.50;;;15.30;99.90;;;;;;5056069;28;20172;-82
2023/07/21 03:08:32;;;;;;;26.43;23.53;;;15.30;99.90;;;;;;5056001;28;20205;-80
2023/07/21 03:10:58;;;;;;;24.73;22.20;;;15.30;99.90;;;;;;5056307;28;20161;-81
2023/07/21 03:13:24;;;;;;;26.20;23.60;;;15.30;99.90;;;;;;5055517;28;20279;-81
2023/07/21 03:15:53;;;;;;;26.57;23.73;;;15.30;99.90;;;;;;5054690;28;20165;-82
2023/07/21 03:18:19;;;;;;;27.67;24.80;;;15.30;99.90;;;;;;5055534;28;20188;-82
2023/07/21 03:20:44;;;;;;;28.90;25.80;;;15.30;99.90;;;;;;5055535;28;20177;-80
2023/07/21 03:23:11;;;;;;;27.17;24.27;;;15.30;99.90;;;;;;5055703;28;20572;-81
2023/07/21 03:25:46;;;;;;;28.47;25.47;;;15.20;99.90;;;;;;5055805;28;20223;-81
2023/07/21 03:28:11;;;;;;;26.43;23.73;;;15.30;99.90;;;;;;5055385;28;20745;-81
2023/07/21 03:30:37;;;;;;;26.77;23.93;;;15.30;99.90;;;;;;5055944;28;20248;-81
2023/07/21 03:33:03;;;;;;;24.93;22.40;;;15.20;99.90;;;;;;5056095;28;20718;-80
2023/07/21 03:35:28;;;;;;;25.03;22.37;;;15.10;99.90;;;;;;5055778;28;20200;-82
2023/07/21 03:37:56;;;;;;;26.10;23.17;;;15.10;99.90;;;;;;5055805;28;20646;-82
2023/07/21 03:40:21;;;;;;;25.80;23.20;;;15.20;99.90;;;;;;5055424;28;20279;-81
2023/07/21 03:42:47;;;;;;;26.73;23.90;;;15.20;99.90;;;;;;5055254;28;20637;-81
2023/07/21 03:45:13;;;;;;;29.23;24.10;;;15.20;99.90;;;;;;5055787;28;20633;-82
2023/07/21 03:47:38;;;;;;;33.80;24.40;;;15.20;99.90;;;;;;5055516;28;20181;-80
2023/07/21 03:50:04;;;;;;;28.90;23.70;;;15.10;99.90;;;;;;5055232;28;20203;-82
2023/07/21 03:52:30;;;;;;;25.60;22.70;;;15.10;99.90;;;;;;5054007;28;20197;-82
2023/07/21 03:54:55;;;;;;;25.07;22.37;;;15.10;99.90;;;;;;5055353;28;20212;-81
2023/07/21 03:57:22;;;;;;;27.73;21.83;;;15.00;99.90;;;;;;5054738;28;20628;-82
2023/07/21 03:59:48;;;;;;;23.83;20.77;;;14.90;99.90;;;;;;5055167;28;20188;-81
2023/07/21 04:02:16;;;;;;;21.90;19.67;;;14.80;99.90;;;;;;5054753;28;20178;-83
2023/07/21 04:04:45;;;;;;;23.03;20.63;;;14.80;99.90;;;;;;5055187;28;20204;-82
2023/07/21 04:07:11;;;;;;;23.73;21.33;;;14.80;99.90;;;;;;5054795;28;20180;-81
2023/07/21 04:09:37;;;;;;;24.87;22.23;;;14.80;99.90;;;;;;5054941;28;20204;-83
2023/07/21 04:12:07;;;;;;;28.27;21.93;;;14.90;99.90;;;;;;5054613;28;20204;-82
2023/07/21 04:14:33;;;;;;;26.20;23.10;;;15.00;99.90;;;;;;5054986;28;20213;-82
2023/07/21 04:16:59;;;;;;;28.10;24.23;;;15.00;99.90;;;;;;5055535;28;20235;-82
2023/07/21 04:19:25;;;;;;;27.23;24.33;;;15.10;99.90;;;;;;5054784;28;20633;-82
2023/07/21 04:21:54;;;;;;;28.03;25.07;;;15.20;99.90;;;;;;5054669;28;20173;-82
2023/07/21 04:24:20;;;;;;;30.60;24.90;;;15.40;99.90;;;;;;5054376;28;20174;-83
2023/07/21 04:26:46;;;;;;;26.23;23.40;;;15.60;99.90;;;;;;5054401;28;20231;-82
2023/07/21 04:29:11;;;;;;;26.23;23.53;;;15.70;99.90;;;;;;5055300;28;20601;-81
2023/07/21 04:31:37;;;;;;;25.80;23.03;;;15.80;99.90;;;;;;5053604;28;20637;-81
2023/07/21 04:34:02;;;;;;;29.33;26.23;;;15.70;99.90;;;;;;5054221;28;20660;-82
2023/07/21 04:36:28;;;;;;;26.27;23.67;;;15.90;99.90;;;;;;5053773;28;20177;-81
2023/07/21 04:38:54;;;;;;;28.50;25.50;;;16.10;99.90;;;;;;5054940;28;20524;-81
2023/07/21 04:41:20;;;;;;;24.77;22.20;;;16.20;99.90;;;;;;5053303;28;20691;-81
2023/07/21 04:43:45;;;;;;;25.00;22.13;;;16.30;99.90;;;;;;5052682;28;20625;-82
2023/07/21 04:46:12;;;;;;;24.67;22.03;;;16.60;99.90;;;;;;5054031;28;20176;-81
2023/07/21 04:48:37;;;;;;;26.13;21.80;;;16.50;99.90;;;;;;5053862;28;20168;-82
2023/07/21 04:51:06;;;;;;;24.03;21.43;;;16.50;99.90;;;;;;5053946;28;20169;-82
2023/07/21 04:53:32;;;;;;;22.23;19.73;;;16.50;99.90;;;;;;5054030;28;20296;-83
2023/07/21 04:55:58;;;;;;;22.03;19.73;;;16.60;99.90;;;;;;5053935;28;20200;-80
2023/07/21 04:58:24;;;;;;;19.87;17.93;;;17.40;99.90;;;;;;5053486;28;20174;-80
2023/07/21 05:00:51;;;;;;;19.93;17.93;;;17.90;99.90;;;;;;5053824;28;20243;-82
2023/07/21 05:03:16;;;;;;;21.30;19.20;;;18.10;99.90;;;;;;5054108;28;20286;-80
2023/07/21 05:05:44;;;;;;;20.03;18.13;;;18.50;99.90;;;;;;5053686;28;20212;-81
2023/07/21 05:08:10;;;;;;;20.03;18.00;;;18.80;99.90;;;;;;5053498;28;20533;-81
2023/07/21 05:10:36;;;;;;;19.88;17.88;;;19.20;99.90;;;;;;5051854;28;20173;-81
2023/07/21 05:13:05;;;;;;;19.70;17.85;;;19.40;99.90;;;;;;5053267;28;20212;-80
2023/07/21 05:15:35;;;;;;;21.50;19.25;;;19.70;98.60;;;;;;5053501;28;20166;-81
2023/07/21 05:18:03;;;;;;;19.95;18.15;;;19.60;93.40;;;;;;5053468;28;20689;-80
2023/07/21 05:20:29;;;;;;;20.58;18.67;;;19.30;93.00;;;;;;5053579;28;20177;-83
2023/07/21 05:22:55;;;;;;;21.42;19.25;;;19.20;96.00;;;;;;5053534;28;20169;-82
2023/07/21 05:25:21;;;;;;;20.23;18.23;;;19.30;96.20;;;;;;5053347;28;20536;-82
2023/07/21 05:27:47;;;;;;;19.40;17.40;;;19.50;96.00;;;;;;5053994;28;20165;-82
2023/07/21 05:30:13;;;;;;;17.67;15.88;;;19.90;94.70;;;;;;5056783;28;20580;-82
2023/07/21 05:32:41;;;;;;;17.15;15.35;;;20.80;79.50;;;;;;5056493;28;20189;-83
2023/07/21 05:35:08;;;;;;;15.73;14.23;;;21.70;46.60;;;;;;5054815;28;20208;-82
2023/07/21 05:37:33;;;;;;;14.05;12.73;;;22.70;17.20;;;;;;5037386;28;20173;-83
2023/07/21 05:39:59;;;;;;;14.90;13.38;;;23.60;1.00;;;;;;5054183;28;20209;-83
2023/07/21 05:42:24;;;;;;;14.20;12.70;;;24.20;1.00;;;;;;5056386;28;20264;-85
2023/07/21 05:44:50;;;;;;;13.70;12.18;;;24.70;1.00;;;;;;5059094;28;20231;-83
2023/07/21 05:47:15;;;;;;;12.80;11.73;;;25.30;1.00;;;;;;5064582;28;20295;-82
2023/07/21 05:49:41;;;;;;;12.82;11.88;;;26.10;1.00;;;;;;5066088;28;20176;-82
2023/07/21 05:52:13;;;;;;;12.80;11.85;;;26.60;1.00;;;;;;5067983;28;20173;-81
2023/07/21 05:54:39;;;;;;;12.68;11.65;;;27.20;1.00;;;;;;5071350;28;20260;-82
2023/07/21 05:57:06;;;;;;;12.68;11.57;;;27.00;1.00;;;;;;5059189;28;20169;-81
2023/07/21 05:59:32;;;;;;;12.02;11.05;;;26.30;1.00;;;;;;5057125;28;20165;-82
2023/07/21 06:02:01;;;;;;;12.23;11.10;;;25.40;1.00;;;;;;5057044;28;20162;-82
2023/07/21 06:04:27;;;;;;;12.65;11.65;;;24.90;1.00;;;;;;5056876;28;20181;-82
2023/07/21 06:06:55;;;;;;;13.38;12.18;;;23.90;1.00;;;;;;5056671;28;20189;-81
2023/07/21 06:09:20;;;;;;;13.20;11.88;;;22.80;1.00;;;;;;5056476;28;20632;-82
2023/07/21 06:11:46;;;;;;;12.82;11.70;;;22.60;1.00;;;;;;5056481;28;20218;-81
2023/07/21 06:14:12;;;;;;;13.43;12.13;;;22.10;1.00;;;;;;5056645;28;20290;-81
2023/07/21 06:16:37;;;;;;;15.98;14.57;;;21.90;2.90;;;;;;5056793;28;20176;-81
2023/07/21 06:19:03;;;;;;;14.35;13.05;;;21.70;2.10;;;;;;5055271;28;20197;-81
2023/07/21 06:21:29;;;;;;;15.02;13.52;;;21.80;3.10;;;;;;5057360;28;20589;-80
2023/07/21 06:23:54;;;;;;;14.65;13.18;;;21.70;5.80;;;;;;5057867;28;20181;-81
2023/07/21 06:26:20;;;;;;;13.82;12.52;;;21.70;7.00;;;;;;5056824;28;20172;-82
2023/07/21 06:28:46;;;;;;;14.85;13.45;;;21.90;5.90;;;;;;5055550;28;20691;-82
2023/07/21 06:31:12;;;;;;;14.23;13.02;;;21.90;4.20;;;;;;5056633;28;20664;-82
2023/07/21 06:33:38;;;;;;;13.98;12.68;;;21.60;8.30;;;;;;5056332;28;20301;-82
2023/07/21 06:36:03;;;;;;;14.68;13.15;;;21.30;16.30;;;;;;5055800;28;20169;-81
2023/07/21 06:38:29;;;;;;;14.40;13.10;;;20.90;23.90;;;;;;5056249;28;20185;-81
2023/07/21 06:40:55;;;;;;;15.05;13.68;;;21.10;25.50;;;;;;5058283;28;20621;-82
2023/07/21 06:43:21;;;;;;;14.10;12.85;;;21.50;19.90;;;;;;5071936;28;20176;-82
2023/07/21 06:45:46;;;;;;;15.68;13.23;;;22.30;12.80;;;;;;5058697;28;20165;-80
2023/07/21 06:48:12;;;;;;;13.48;12.40;;;23.90;1.00;;;;;;5056232;28;20566;-80
2023/07/21 06:50:38;;;;;;;13.77;12.57;;;25.60;1.00;;;;;;5056400;28;20240;-80
2023/07/21 06:53:05;;;;;;;13.20;11.95;;;27.10;1.00;;;;;;5057103;28;20675;-80
2023/07/21 06:55:34;;;;;;;13.32;12.00;;;27.50;1.00;;;;;;5056336;28;20157;-79
2023/07/21 06:58:00;;;;;;;13.25;12.15;;;27.60;1.00;;;;;;5055599;28;20177;-79
2023/07/21 07:00:26;;;;;;;13.07;11.95;;;27.50;1.00;;;;;;5055083;28;20644;-80
2023/07/21 07:02:53;;;;;;;12.55;11.45;;;27.80;99.90;;;;;;5056127;28;20195;-80
2023/07/21 07:05:19;;;;;;;12.15;11.18;;;28.10;99.90;;;;;;5055176;28;20189;-80
2023/07/21 07:07:45;;;;;;;12.75;11.65;;;28.60;1.00;;;;;;5056458;28;20169;-81
2023/07/21 07:10:10;;;;;;;12.32;11.25;;;28.60;1.00;;;;;;5058852;28;20548;-81
2023/07/21 07:12:38;;;;;;;11.80;10.90;;;28.10;67.80;;;;;;5061515;28;20181;-81
2023/07/21 07:15:05;;;;;;;12.55;11.45;;;27.90;99.90;;;;;;5059594;28;20173;-80
2023/07/21 07:17:31;;;;;;;11.95;11.07;;;27.20;1.00;;;;;;5060733;28;20196;-79
2023/07/21 07:19:56;;;;;;;11.85;10.70;;;26.70;1.00;;;;;;5061068;28;20636;-79
2023/07/21 07:22:22;;;;;;;13.45;12.25;;;26.30;1.00;;;;;;5059709;28;20572;-80
2023/07/21 07:24:48;;;;;;;11.70;10.70;;;25.90;1.00;;;;;;5061385;28;20179;-79
2023/07/21 07:27:13;;;;;;;11.98;10.98;;;25.40;1.00;;;;;;5058400;28;20480;-79
2023/07/21 07:29:40;;;;;;;12.48;11.40;;;24.80;1.00;;;;;;5056848;28;20231;-80
2023/07/21 07:32:06;;;;;;;11.68;10.75;;;25.60;1.00;;;;;;5056384;28;20200;-81
2023/07/21 07:34:32;;;;;;;11.82;10.60;;;26.30;1.00;;;;;;5063654;28;20680;-80
2023/07/21 07:36:58;;;;;;;11.15;10.27;;;26.30;1.00;;;;;;5060478;28;20169;-80
2023/07/21 07:39:24;;;;;;;11.77;10.80;;;26.10;1.00;;;;;;5055114;28;20192;-81
2023/07/21 07:41:51;;;;;;;9.95;9.18;;;26.50;1.00;;;;;;5055592;28;20228;-81
2023/07/21 07:44:18;;;;;;;10.80;10.00;;;27.90;1.00;;;;;;5056929;28;20165;-81
2023/07/21 07:46:43;;;;;;;12.13;11.13;;;28.60;1.00;;;;;;5055041;28;20659;-81
2023/07/21 07:49:09;;;;;;;11.77;10.77;;;28.80;1.00;;;;;;5055502;28;20185;-81
2023/07/21 07:51:40;;;;;;;11.60;10.55;;;28.70;99.90;;;;;;5055702;28;20601;-81
2023/07/21 07:54:07;;;;;;;12.27;11.20;;;28.70;1.00;;;;;;5055404;28;20201;-80
2023/07/21 07:56:33;;;;;;;11.98;10.88;;;28.60;1.00;;;;;;5054961;28;20169;-81
2023/07/21 07:58:59;;;;;;;11.82;10.93;;;28.50;61.00;;;;;;5054522;28;20575;-80
2023/07/21 08:01:26;;;;;;;12.43;11.45;;;28.10;99.90;;;;;;5057477;28;20166;-80
2023/07/21 08:03:53;;;;;;;12.85;11.85;;;28.20;99.90;;;;;;5058641;28;20169;-80
2023/07/21 08:06:19;;;;;;;13.52;12.35;;;27.40;1.00;;;;;;5056978;28;20675;-78
2023/07/21 08:08:45;;;;;;;13.60;12.40;;;26.70;1.00;;;;;;5057349;28;20177;-80
2023/07/21 08:11:11;;;;;;;13.35;12.35;;;26.30;1.00;;;;;;5057254;28;20207;-79
2023/07/21 08:13:38;;;;;;;13.80;12.40;;;25.70;1.00;;;;;;5058050;28;20209;-80
2023/07/21 08:16:15;;;;;;;14.18;12.88;;;25.20;1.00;;;;;;5058320;28;20168;-80
2023/07/21 08:18:40;;;;;;;14.35;13.15;;;24.00;1.00;;;;;;5053573;28;20173;-80
2023/07/21 08:21:23;;;;;;;14.15;12.77;;;23.50;1.00;;;;;;5057257;28;20172;-80
2023/07/21 08:23:50;;;;;;;14.00;12.80;;;23.70;1.00;;;;;;5058268;28;20177;-80
2023/07/21 08:26:17;;;;;;;12.55;11.55;;;23.10;1.00;;;;;;5057590;28;20161;-81
2023/07/21 08:28:42;;;;;;;13.60;12.40;;;23.30;1.00;;;;;;5055810;28;20197;-81
2023/07/21 08:31:09;;;;;;;12.43;11.43;;;23.90;1.00;;;;;;5054212;28;20193;-80
2023/07/21 08:33:35;;;;;;;12.10;11.10;;;24.30;1.00;;;;;;5054586;28;20201;-80
2023/07/21 08:36:01;;;;;;;11.27;10.38;;;25.10;1.00;;;;;;5054671;28;20660;-79
2023/07/21 08:38:27;;;;;;;10.70;9.80;;;26.30;1.00;;;;;;5053949;28;20181;-79
2023/07/21 08:41:02;;;;;;;12.20;11.10;;;27.40;1.00;;;;;;5053308;28;20755;-80
2023/07/21 08:43:28;;;;;;;12.13;11.00;;;28.20;30.60;;;;;;5052667;28;20172;-80
2023/07/21 08:45:57;;;;;;;12.55;11.65;;;29.00;99.90;;;;;;5054026;28;20252;-79
2023/07/21 08:48:23;;;;;;;12.85;11.77;;;29.10;99.90;;;;;;5053139;28;20173;-79
2023/07/21 08:50:52;;;;;;;12.73;11.73;;;29.70;1.00;;;;;;5052231;28;20173;-79
2023/07/21 08:53:17;;;;;;;11.25;10.40;;;29.90;1.00;;;;;;5052900;28;20633;-80
2023/07/21 08:55:43;;;;;;;12.48;11.48;;;30.50;1.00;;;;;;5053667;28;20175;-79
2023/07/21 08:58:10;;;;;;;13.85;12.75;;;30.10;1.00;;;;;;5053271;28;20177;-80
2023/07/21 09:00:37;;;;;;;13.48;12.32;;;28.30;99.90;;;;;;5053196;28;20169;-80
2023/07/21 09:03:03;;;;;;;12.25;11.35;;;29.00;99.90;;;;;;5052725;28;20203;-79
2023/07/21 09:05:29;;;;;;;13.38;12.38;;;29.50;99.90;;;;;;5053431;28;20189;-80
2023/07/21 09:07:55;;;;;;;13.57;12.57;;;30.10;99.90;;;;;;5053247;28;20224;-79
2023/07/21 09:10:31;;;;;;;12.23;11.32;;;30.10;99.90;;;;;;5053681;28;20622;-78
2023/07/21 09:12:57;;;;;;;12.15;11.15;;;30.60;1.00;;;;;;5053163;28;20205;-80
2023/07/21 09:15:22;;;;;;;12.75;11.75;;;30.40;1.00;;;;;;5052725;28;20169;-80
2023/07/21 09:17:48;;;;;;;12.95;11.77;;;31.20;99.90;;;;;;5053010;28;20180;-80
2023/07/21 09:20:14;;;;;;;13.73;12.68;;;31.80;78.30;;;;;;5053463;28;20169;-81
2023/07/21 09:22:40;;;;;;;15.60;14.30;;;31.90;99.90;;;;;;5053172;28;20556;-80
2023/07/21 09:25:08;;;;;;;15.80;14.50;;;31.30;1.00;;;;;;5053112;28;20184;-82
2023/07/21 09:27:35;;;;;;;18.35;16.95;;;31.20;1.00;;;;;;5053031;28;20220;-81
2023/07/21 09:30:02;;;;;;;18.48;16.90;;;31.30;99.90;;;;;;5052677;28;20173;-81
2023/07/21 09:32:28;;;;;;;19.95;18.38;;;30.40;1.00;;;;;;5052567;28;20172;-81
2023/07/21 09:34:56;;;;;;;19.15;17.55;;;30.30;1.00;;;;;;5052742;28;20663;-82
2023/07/21 09:37:26;;;;;;;18.65;17.15;;;30.70;1.00;;;;;;5052773;28;20187;-82
2023/07/21 09:39:56;;;;;;;18.65;16.95;;;30.80;99.90;;;;;;5052469;28;20170;-83
2023/07/21 09:42:25;;;;;;;17.92;16.52;;;30.60;1.00;;;;;;5053182;28;20203;-81
2023/07/21 09:44:52;;;;;;;17.48;15.88;;;30.80;1.00;;;;;;5052954;28;20198;-81
2023/07/21 09:47:19;;;;;;;15.23;13.95;;;31.00;1.00;;;;;;5053173;28;20185;-81
2023/07/21 09:49:46;;;;;;;14.85;13.80;;;30.20;1.00;;;;;;5053112;28;20174;-81
2023/07/21 09:52:17;;;;;;;14.85;13.65;;;30.00;99.90;;;;;;5052948;28;20204;-81
2023/07/21 09:54:49;;;;;;;14.00;13.00;;;29.70;99.90;;;;;;5053237;28;20290;-82
2023/07/21 09:57:18;;;;;;;14.00;12.80;;;30.00;99.90;;;;;;5052832;28;20165;-82
2023/07/21 09:59:47;;;;;;;13.65;12.55;;;29.60;99.90;;;;;;5052286;28;20668;-83
2023/07/21 10:02:15;;;;;;;13.38;12.25;;;29.50;1.00;;;;;;5052788;28;20157;-82
2023/07/21 10:04:42;;;;;;;11.93;11.00;;;28.90;1.00;;;;;;5052785;28;20185;-81
2023/07/21 10:07:10;;;;;;;10.98;10.13;;;28.40;99.90;;;;;;5053060;28;20176;-81
2023/07/21 10:09:36;;;;;;;9.90;8.90;;;28.30;99.90;;;;;;5052110;28;20653;-82
2023/07/21 10:12:14;;;;;;;9.68;8.98;;;27.70;99.90;;;;;;5052463;28;20170;-81
2023/07/21 10:14:40;;;;;;;9.25;8.35;;;26.70;1.00;;;;;;5052458;28;20661;-84
2023/07/21 10:17:07;;;;;;;8.88;8.00;;;26.10;99.90;;;;;;5052995;28;20198;-82
2023/07/21 10:19:44;;;;;;;9.05;8.15;;;26.40;47.60;;;;;;5062624;28;20213;-81
2023/07/21 10:22:24;;;;;;;8.15;7.55;;;27.50;1.00;;;;;;5061872;28;20180;-83
2023/07/21 10:24:51;;;;;;;8.35;7.63;;;28.30;1.00;;;;;;5059429;28;20173;-83
2023/07/21 10:27:21;;;;;;;7.28;6.57;;;28.70;1.00;;;;;;5052635;28;20177;-82
2023/07/21 10:30:14;;;;;;;7.25;6.63;;;28.90;1.00;;;;;;5052713;28;20173;-81
2023/07/21 10:32:43;;;;;;;8.95;7.00;;;27.40;1.00;;;;;;5052610;28;20263;-83
2023/07/21 10:35:35;;;;;;;6.65;6.05;;;26.60;1.00;;;;;;5051570;28;20215;-83
2023/07/21 10:38:19;;;;;;;9.07;6.00;;;26.60;98.80;;;;;;5053031;28;20220;-83
2023/07/21 10:40:45;;;;;;;5.28;4.88;;;27.20;1.00;;;;;;5055138;28;20716;-82
2023/07/21 10:43:11;;;;;;;4.82;4.43;;;28.10;1.00;;;;;;5055662;28;20199;-83
2023/07/21 10:45:38;;;;;;;4.50;4.10;;;28.50;99.90;;;;;;5055895;28;20161;-83
2023/07/21 10:48:13;;;;;;;3.60;3.40;;;29.20;5.80;;;;;;5055726;28;20196;-83
2023/07/21 10:50:54;;;;;;;4.25;3.50;;;29.10;99.90;;;;;;5054476;28;20223;-82
2023/07/21 10:53:21;;;;;;;3.42;3.05;;;29.50;1.00;;;;;;5056187;28;20263;-81
2023/07/21 10:55:46;;;;;;;2.92;2.72;;;29.20;99.90;;;;;;5056111;28;20192;-81
2023/07/21 10:58:13;;;;;;;2.67;2.58;;;28.20;1.00;;;;;;5055523;28;20174;-81
2023/07/21 11:00:51;;;;;;;2.90;2.70;;;27.40;99.90;;;;;;5058484;28;20180;-83
2023/07/21 11:03:17;;;;;;;2.95;2.55;;;27.60;1.00;;;;;;5055634;28;20510;-82
2023/07/21 11:05:43;;;;;;;2.58;2.47;;;27.40;99.90;;;;;;5055552;28;20197;-83
2023/07/21 11:08:25;;;;;;;4.80;4.43;;;27.40;1.00;;;;;;5055434;28;20165;-82
2023/07/21 11:10:50;;;;;;;3.72;2.80;;;27.10;99.90;;;;;;5055152;28;20176;-83
2023/07/21 11:13:17;;;;;;;3.55;3.25;;;26.50;1.00;;;;;;5054861;28;20197;-82
2023/07/21 11:15:51;;;;;;;4.13;3.60;;;25.60;99.90;;;;;;5055618;28;20176;-83
2023/07/21 11:18:16;;;;;;;3.50;3.20;;;25.20;99.90;;;;;;5054348;28;20346;-82
2023/07/21 11:20:42;;;;;;;3.33;2.88;;;24.90;99.90;;;;;;5055364;28;20638;-82
2023/07/21 11:23:08;;;;;;;6.18;2.60;;;24.50;99.90;;;;;;5054950;28;20177;-81
2023/07/21 11:25:34;;;;;;;2.53;2.33;;;24.50;98.30;;;;;;5055203;28;20169;-82
2023/07/21 11:28:05;;;;;;;4.53;2.95;;;23.90;1.00;;;;;;5054736;28;20173;-82
2023/07/21 11:30:31;;;;;;;3.70;3.40;;;23.60;1.00;;;;;;5055344;28;20216;-81
2023/07/21 11:33:09;;;;;;;3.70;3.40;;;23.00;1.00;;;;;;5054798;28;20278;-81
2023/07/21 11:35:35;;;;;;;3.42;3.22;;;22.40;1.00;;;;;;5054516;28;20161;-81
2023/07/21 11:38:01;;;;;;;3.95;3.65;;;22.10;1.00;;;;;;5055187;28;20169;-82
2023/07/21 11:40:33;;;;;;;3.60;3.30;;;21.80;1.00;;;;;;5054222;28;20580;-82
2023/07/21 11:42:59;;;;;;;3.85;3.55;;;21.70;1.00;;;;;;5055040;28;20220;-82
2023/07/21 11:45:42;;;;;;;4.03;3.65;;;21.50;1.00;;;;;;5054773;28;20193;-82
2023/07/21 11:48:20;;;;;;;4.53;4.18;;;21.20;1.00;;;;;;5054688;28;20161;-82
2023/07/21 11:50:50;;;;;;;4.00;3.70;;;21.10;1.00;;;;;;5054235;28;20173;-80
2023/07/21 11:53:17;;;;;;;3.78;3.55;;;21.00;1.00;;;;;;5053353;28;20219;-81
2023/07/21 11:55:44;;;;;;;3.97;3.67;;;20.90;1.00;;;;;;5054448;28;20165;-82
2023/07/21 11:58:11;;;;;;;4.15;3.75;;;20.90;1.00;;;;;;5054530;28;20672;-83
2023/07/21 12:00:37;;;;;;;4.57;4.07;;;20.90;1.00;;;;;;5054023;28;20161;-81
2023/07/21 12:03:04;;;;;;;3.70;3.50;;;20.70;1.00;;;;;;5054614;28;20197;-81
2023/07/21 12:05:31;;;;;;;3.65;3.45;;;20.70;1.00;;;;;;5054585;28;20690;-83
2023/07/21 12:07:57;;;;;;;3.15;2.95;;;20.90;1.00;;;;;;5054309;28;20181;-81
2023/07/21 12:10:23;;;;;;;3.90;3.50;;;21.10;1.00;;;;;;5053927;28;20165;-82
2023/07/21 12:12:50;;;;;;;5.57;3.47;;;21.20;1.00;;;;;;5054308;28;20272;-81
2023/07/21 12:15:16;;;;;;;5.35;3.88;;;21.40;1.00;;;;;;5054388;28;20180;-81
2023/07/21 12:17:42;;;;;;;3.45;3.22;;;21.50;1.00;;;;;;5054275;28;20169;-81
2023/07/21 12:20:11;;;;;;;3.78;3.47;;;21.70;1.00;;;;;;5054038;28;20177;-81
2023/07/21 12:22:40;;;;;;;4.10;3.13;;;22.00;1.00;;;;;;5054045;28;20256;-81
2023/07/21 12:25:07;;;;;;;4.75;3.10;;;22.30;1.00;;;;;;5053709;28;20177;-80
2023/07/21 12:27:34;;;;;;;3.83;3.47;;;22.90;1.00;;;;;;5053763;28;20169;-79
2023/07/21 12:30:02;;;;;;;4.50;4.10;;;23.10;1.00;;;;;;5054020;28;20655;-80
2023/07/21 12:32:27;;;;;;;6.40;4.15;;;23.60;1.00;;;;;;5054151;28;20181;-81
2023/07/21 12:34:53;;;;;;;5.28;4.80;;;24.00;1.00;;;;;;5053416;28;20209;-81
2023/07/21 12:37:19;;;;;;;5.70;5.20;;;23.90;1.00;;;;;;5053601;28;20212;-79